Time;durP1;ratioP1;P1;durP2;ratioP2;P2;SDS_P1;SDS_P2;PMS_P1;PMS_P2;Temp;Humidity;BMP_temperature;BMP_pressure;BME280_temperature;BME280_humidity;BME280_pressure;Samples;Min_cycle;Max_cycle;Signal;HPM_P1;HPM_P2
2022/07/16 00:03:08;;;;;;;2.15;0.80;;;;;;;17.75;65.92;102185.63;5035166;28;20049;-75
2022/07/16 00:05:34;;;;;;;1.33;1.10;;;;;;;17.74;65.77;102176.84;5033602;28;20045;-75
2022/07/16 00:07:59;;;;;;;1.58;1.20;;;;;;;17.73;65.93;102185.69;5034872;28;20452;-75
2022/07/16 00:10:25;;;;;;;3.03;1.30;;;;;;;17.75;65.95;102182.97;5031672;28;20185;-75
2022/07/16 00:12:51;;;;;;;1.25;1.10;;;;;;;17.74;66.16;102179.50;5026755;28;20041;-75
2022/07/16 00:15:16;;;;;;;1.33;0.90;;;;;;;17.75;66.08;102181.19;5037091;28;20020;-75
2022/07/16 00:17:42;;;;;;;1.83;1.00;;;;;;;17.74;65.90;102182.13;5037029;28;20048;-75
2022/07/16 00:20:08;;;;;;;1.20;0.98;;;;;;;17.75;66.03;102181.19;5054467;28;20316;-75
2022/07/16 00:22:33;;;;;;;1.95;1.00;;;;;;;17.75;66.03;102188.28;5055122;28;20298;-75
2022/07/16 00:24:59;;;;;;;1.25;0.85;;;;;;;17.74;66.42;102183.94;5054470;28;20045;-75
2022/07/16 00:27:24;;;;;;;1.48;1.38;;;;;;;17.74;66.45;102183.94;5036954;28;20037;-75
2022/07/16 00:29:49;;;;;;;1.02;1.02;;;;;;;17.74;66.71;102182.13;5054498;28;20194;-75
2022/07/16 00:32:15;;;;;;;1.58;1.08;;;;;;;17.74;66.70;102179.50;5054700;28;20041;-75
2022/07/16 00:34:41;;;;;;;1.15;0.93;;;;;;;17.75;66.51;102183.84;5054791;28;20036;-75
2022/07/16 00:37:06;;;;;;;2.20;1.00;;;;;;;17.74;66.75;102182.13;5053685;28;20336;-75
2022/07/16 00:39:31;;;;;;;1.92;1.25;;;;;;;17.74;66.49;102176.84;5037068;28;20041;-75
2022/07/16 00:41:57;;;;;;;1.23;1.02;;;;;;;17.74;66.62;102171.53;5020345;28;20025;-75
2022/07/16 00:44:23;;;;;;;3.13;1.35;;;;;;;17.73;66.84;102171.59;5054699;28;20047;-75
2022/07/16 00:46:49;;;;;;;2.83;1.45;;;;;;;17.73;67.24;102164.50;5054760;28;20033;-75
2022/07/16 00:49:16;;;;;;;1.88;1.27;;;;;;;17.73;67.00;102175.09;5054937;28;20032;-75
2022/07/16 00:51:52;;;;;;;3.05;1.50;;;;;;;17.73;66.69;102177.75;5055052;28;20370;-75
2022/07/16 00:54:19;;;;;;;1.63;1.45;;;;;;;17.72;67.03;102169.88;5054357;28;20045;-75
2022/07/16 00:56:44;;;;;;;1.90;1.10;;;;;;;17.72;66.82;102172.53;5054275;28;20060;-75
2022/07/16 00:59:12;;;;;;;2.38;1.42;;;;;;;17.72;66.84;102177.81;5054416;28;20257;-75
2022/07/16 01:01:37;;;;;;;2.15;1.35;;;;;;;17.72;67.01;102176.06;5054915;28;20036;-75
2022/07/16 01:04:06;;;;;;;1.38;1.27;;;;;;;17.72;67.03;102170.75;5036189;28;20335;-75
2022/07/16 01:06:31;;;;;;;;;;;;;;;17.72;66.90;102173.41;5054960;28;20245;-75
2022/07/16 01:08:58;;;;;;;2.25;1.38;;;;;;;17.73;66.90;102174.25;5054401;28;19978;-75
2022/07/16 01:11:25;;;;;;;1.58;1.17;;;;;;;17.71;67.18;102174.34;5036378;28;20032;-75
2022/07/16 01:13:51;;;;;;;1.42;1.33;;;;;;;17.72;67.19;102177.81;5036996;28;20100;-75
2022/07/16 01:16:18;;;;;;;3.00;1.60;;;;;;;17.71;67.49;102173.47;5054355;28;20052;-75
2022/07/16 01:18:44;;;;;;;4.32;1.90;;;;;;;17.71;67.71;102182.28;5054993;28;20309;-75
2022/07/16 01:21:11;;;;;;;1.92;1.60;;;;;;;17.71;67.57;102171.69;5053879;28;20039;-75
2022/07/16 01:23:36;;;;;;;2.63;1.60;;;;;;;17.71;67.56;102173.47;5036340;28;20037;-75
2022/07/16 01:26:02;;;;;;;1.70;1.60;;;;;;;17.71;67.86;102174.34;5053913;28;20044;-75
2022/07/16 01:28:28;;;;;;;2.05;1.85;;;;;;;17.71;68.10;102163.72;5036321;28;20190;-75
2022/07/16 01:30:53;;;;;;;1.83;1.70;;;;;;;17.72;68.10;102172.53;5053742;28;20111;-75
2022/07/16 01:33:21;;;;;;;2.05;1.83;;;;;;;17.71;68.14;102174.34;5054442;28;20036;-75
2022/07/16 01:35:47;;;;;;;1.90;1.80;;;;;;;17.73;67.91;102174.25;5054374;28;20037;-75
2022/07/16 01:38:13;;;;;;;3.17;1.48;;;;;;;17.72;67.96;102172.53;5054499;28;20035;-75
2022/07/16 01:40:38;;;;;;;2.88;1.60;;;;;;;17.72;68.39;102169.88;5036510;28;20282;-75
2022/07/16 01:43:03;;;;;;;2.10;1.40;;;;;;;17.73;68.16;102176.91;5036027;28;20045;-75
2022/07/16 01:45:29;;;;;;;2.58;1.73;;;;;;;17.73;68.52;102176.91;5036155;28;20036;-75
2022/07/16 01:47:54;;;;;;;2.80;2.30;;;;;;;17.72;68.84;102168.09;5038731;28;20036;-75
2022/07/16 01:50:19;;;;;;;1.90;1.80;;;;;;;17.72;69.47;102176.06;5057458;28;20332;-75
2022/07/16 01:52:45;;;;;;;2.83;1.95;;;;;;;17.73;69.35;102176.91;5057826;28;20064;-75
2022/07/16 01:55:11;;;;;;;1.65;1.55;;;;;;;17.72;69.60;102172.53;5057502;28;20379;-75
2022/07/16 01:57:36;;;;;;;3.10;1.63;;;;;;;17.70;69.30;102183.22;5057554;28;20037;-75
2022/07/16 02:00:03;;;;;;;3.13;1.73;;;;;;;17.71;69.01;102178.78;5039595;28;20217;-75
2022/07/16 02:02:28;;;;;;;2.25;1.40;;;;;;;17.71;68.62;102178.78;5057262;28;20431;-75
2022/07/16 02:04:54;;;;;;;4.05;1.58;;;;;;;17.71;68.54;102182.28;5056843;28;20037;-75
2022/07/16 02:07:20;;;;;;;1.83;1.73;;;;;;;17.72;69.35;102180.47;5039508;28;20103;-75
2022/07/16 02:09:45;;;;;;;1.80;1.70;;;;;;;17.72;69.57;102185.78;5058113;28;20041;-75
2022/07/16 02:12:11;;;;;;;2.72;1.67;;;;;;;17.70;70.40;102183.22;5038997;28;20259;-75
2022/07/16 02:14:36;;;;;;;4.30;1.65;;;;;;;17.70;71.30;102187.66;5057748;28;20049;-75
2022/07/16 02:17:02;;;;;;;1.65;1.40;;;;;;;17.69;71.09;102186.81;5056565;28;20414;-75
2022/07/16 02:19:27;;;;;;;2.78;1.63;;;;;;;17.69;71.32;102194.75;5057219;28;20060;-75
2022/07/16 02:21:53;;;;;;;2.08;1.63;;;;;;;17.68;71.50;102187.72;5056725;28;20032;-75
2022/07/16 02:24:18;;;;;;;3.05;1.67;;;;;;;17.68;71.69;102192.16;5038991;28;20104;-75
2022/07/16 02:26:44;;;;;;;2.22;2.00;;;;;;;17.68;72.02;102194.81;5057334;28;20220;-75
2022/07/16 02:29:10;;;;;;;1.85;1.40;;;;;;;17.68;72.07;102202.75;5056808;28;20100;-75
2022/07/16 02:31:35;;;;;;;1.23;1.13;;;;;;;17.67;72.41;102201.06;5056818;28;20307;-75
2022/07/16 02:34:01;;;;;;;2.25;1.35;;;;;;;17.67;72.23;102201.06;5038829;28;20262;-75
2022/07/16 02:36:26;;;;;;;2.67;1.40;;;;;;;17.66;72.25;102200.19;5056621;28;20358;-75
2022/07/16 02:38:52;;;;;;;1.35;1.05;;;;;;;17.66;72.11;102202.84;5039993;28;20036;-78
2022/07/16 02:41:18;;;;;;;2.15;1.13;;;;;;;17.65;72.01;102198.50;5057689;28;20025;-78
2022/07/16 02:43:43;;;;;;;5.32;1.20;;;;;;;17.65;71.96;102201.97;5057680;28;20048;-78
2022/07/16 02:46:09;;;;;;;4.88;1.48;;;;;;;17.67;72.02;102212.50;5057543;28;20240;-78
2022/07/16 02:48:34;;;;;;;2.40;0.90;;;;;;;17.65;72.00;102217.03;5057464;28;20047;-78
2022/07/16 02:50:59;;;;;;;4.53;1.55;;;;;;;17.65;72.01;102224.97;5039747;28;20033;-77
2022/07/16 02:53:25;;;;;;;3.17;1.30;;;;;;;17.65;72.26;102230.28;5057322;28;20032;-78
2022/07/16 02:55:50;;;;;;;2.70;1.08;;;;;;;17.64;72.31;102229.44;5057359;28;20036;-77
2022/07/16 02:58:16;;;;;;;2.78;1.02;;;;;;;17.64;72.49;102234.72;5057026;28;20052;-78
2022/07/16 03:00:41;;;;;;;1.00;0.90;;;;;;;17.62;72.43;102225.97;5023387;28;20028;-78
2022/07/16 03:03:06;;;;;;;7.18;0.90;;;;;;;17.62;72.20;102233.06;5039578;28;20048;-78
2022/07/16 03:05:32;;;;;;;0.60;0.60;;;;;;;17.61;72.09;102228.72;5039889;28;20033;-78
2022/07/16 03:07:57;;;;;;;1.13;0.50;;;;;;;17.61;72.34;102226.06;5057426;28;20036;-77
2022/07/16 03:10:23;;;;;;;4.70;0.82;;;;;;;17.60;72.56;102233.13;5057182;28;20037;-78
2022/07/16 03:12:48;;;;;;;0.80;0.60;;;;;;;17.58;72.72;102231.50;5056853;28;20092;-78
2022/07/16 03:15:13;;;;;;;0.93;0.50;;;;;;;17.57;72.70;102238.59;5057084;28;20359;-78
2022/07/16 03:17:40;;;;;;;1.00;0.68;;;;;;;17.57;72.70;102235.94;5057204;28;20056;-78
2022/07/16 03:20:06;;;;;;;0.93;0.60;;;;;;;17.56;72.59;102234.22;5039229;28;20033;-78
2022/07/16 03:22:31;;;;;;;0.90;0.65;;;;;;;17.57;72.61;102237.72;5057267;28;20040;-78
2022/07/16 03:24:57;;;;;;;1.85;0.70;;;;;;;17.55;72.54;102245.72;5057368;28;20072;-77
2022/07/16 03:27:22;;;;;;;0.95;0.80;;;;;;;17.55;72.65;102250.19;5056623;28;20055;-78
2022/07/16 03:29:48;;;;;;;1.20;0.90;;;;;;;17.54;73.09;102245.84;5055222;28;20040;-78
2022/07/16 03:32:13;;;;;;;1.25;0.80;;;;;;;17.53;72.91;102246.75;5009771;28;20033;-78
2022/07/16 03:34:39;;;;;;;3.30;0.95;;;;;;;17.53;73.43;102246.75;5034341;28;20240;-78
2022/07/16 03:37:04;;;;;;;0.70;0.70;;;;;;;17.52;73.36;102239.72;5034814;28;20041;-78
2022/07/16 03:39:30;;;;;;;1.25;0.90;;;;;;;17.51;73.15;102244.16;5055520;28;20463;-78
2022/07/16 03:41:55;;;;;;;0.82;0.60;;;;;;;17.50;73.13;102246.88;5055082;28;20151;-78
2022/07/16 03:44:20;;;;;;;0.70;0.68;;;;;;;17.51;73.26;102256.56;5037568;28;20040;-77
2022/07/16 03:46:45;;;;;;;1.35;0.80;;;;;;;17.50;73.13;102257.47;5055877;28;20390;-78
2022/07/16 03:49:11;;;;;;;1.52;0.75;;;;;;;17.49;73.34;102261.94;5036917;28;20047;-78
2022/07/16 03:51:37;;;;;;;2.40;0.80;;;;;;;17.49;73.41;102272.53;5037578;28;20033;-78
2022/07/16 03:54:03;;;;;;;1.08;0.75;;;;;;;17.48;73.23;102273.44;5055091;28;20083;-77
2022/07/16 03:56:29;;;;;;;1.15;0.93;;;;;;;17.46;73.21;102272.66;5055013;28;20037;-78
2022/07/16 03:58:55;;;;;;;1.52;1.02;;;;;;;17.45;73.60;102274.47;5037557;28;20454;-78
2022/07/16 04:01:20;;;;;;;1.20;0.90;;;;;;;17.44;73.47;102271.88;5055144;28;20037;-78
2022/07/16 04:03:46;;;;;;;1.30;1.20;;;;;;;17.44;73.90;102274.53;5054945;28;20262;-78
2022/07/16 04:06:11;;;;;;;1.00;0.88;;;;;;;17.44;73.60;102282.47;5054726;28;20382;-78
2022/07/16 04:08:37;;;;;;;1.17;1.00;;;;;;;17.42;74.12;102279.88;5054522;28;20033;-78
2022/07/16 04:11:03;;;;;;;3.53;1.33;;;;;;;17.41;74.95;102286.13;5035884;28;20045;-78
2022/07/16 04:13:28;;;;;;;1.45;1.00;;;;;;;17.40;75.02;102281.75;5037290;28;20041;-78
2022/07/16 04:15:54;;;;;;;1.77;1.02;;;;;;;17.40;75.06;102289.69;5034250;28;20041;-78
2022/07/16 04:18:20;;;;;;;1.70;1.20;;;;;;;17.39;75.12;102295.06;5035231;28;20037;-78
2022/07/16 04:20:46;;;;;;;1.13;1.02;;;;;;;17.39;74.99;102292.41;5037162;28;20060;-78
2022/07/16 04:23:12;;;;;;;1.48;1.00;;;;;;;17.39;75.12;102295.06;5050161;28;20459;-78
2022/07/16 04:25:37;;;;;;;0.95;0.80;;;;;;;17.40;75.22;102302.94;5037432;28;20064;-78
2022/07/16 04:28:02;;;;;;;2.78;1.00;;;;;;;17.38;75.34;102304.81;5030952;28;20033;-78
2022/07/16 04:30:28;;;;;;;1.50;0.85;;;;;;;17.39;75.30;102313.59;5054496;28;20041;-78
2022/07/16 04:32:53;;;;;;;0.63;0.50;;;;;;;17.38;75.48;102314.53;5053644;28;20033;-78
2022/07/16 04:35:19;;;;;;;1.38;0.80;;;;;;;17.36;75.22;102303.16;5054214;28;20335;-77
2022/07/16 04:37:44;;;;;;;1.80;0.80;;;;;;;17.36;75.33;102313.75;5054139;28;20367;-78
2022/07/16 04:40:12;;;;;;;1.13;1.02;;;;;;;17.35;75.50;102318.16;5053892;28;20086;-77
2022/07/16 04:42:39;;;;;;;2.22;1.33;;;;;;;17.34;75.46;102319.13;5053789;28;20245;-77
2022/07/16 04:45:06;;;;;;;1.35;0.63;;;;;;;17.33;75.70;102320.03;5036046;28;20025;-77
2022/07/16 04:47:31;;;;;;;3.20;1.10;;;;;;;17.32;75.62;102320.09;5035730;28;20036;-78
2022/07/16 04:49:56;;;;;;;2.13;0.80;;;;;;;17.31;75.71;102321.03;5053564;28;20086;-78
2022/07/16 04:52:22;;;;;;;2.63;0.80;;;;;;;17.31;75.77;102332.50;5019331;28;20228;-78
2022/07/16 04:54:47;;;;;;;2.80;0.90;;;;;;;17.30;76.09;102328.13;5053696;28;20283;-78
2022/07/16 04:57:12;;;;;;;1.38;0.70;;;;;;;17.30;76.05;102327.25;5053813;28;20041;-78
2022/07/16 04:59:38;;;;;;;1.00;0.77;;;;;;;17.29;75.95;102323.75;5053588;28;20139;-78
2022/07/16 05:04:47;;;;;;;0.93;0.75;;;;;;;17.29;76.26;102333.50;5054109;28;20043;-78
2022/07/16 05:07:12;;;;;;;2.88;1.05;;;;;;;17.28;76.17;102327.31;5053581;28;20040;-77
2022/07/16 05:09:38;;;;;;;0.75;0.68;;;;;;;17.28;76.28;102329.97;5053835;28;20033;-78
2022/07/16 05:12:03;;;;;;;0.98;0.60;;;;;;;17.27;76.02;102330.91;5035058;28;20267;-78
2022/07/16 05:14:29;;;;;;;1.30;0.63;;;;;;;17.26;75.98;102332.72;5053921;28;20048;-77
2022/07/16 05:16:56;;;;;;;2.83;1.10;;;;;;;17.25;75.96;102338.91;5053393;28;20045;-77
2022/07/16 05:19:22;;;;;;;2.55;0.85;;;;;;;17.24;75.95;102336.34;5053439;28;20520;-78
2022/07/16 05:21:47;;;;;;;3.60;1.00;;;;;;;17.23;75.56;102340.78;5036994;28;20037;-78
2022/07/16 05:24:13;;;;;;;3.17;0.98;;;;;;;17.23;75.43;102334.63;5056310;28;20041;-78
2022/07/16 05:26:38;;;;;;;1.17;0.77;;;;;;;17.23;75.65;102339.94;5053993;28;20272;-78
2022/07/16 05:29:03;;;;;;;1.08;0.77;;;;;;;17.22;75.32;102343.50;5034625;28;20047;-78
2022/07/16 05:31:29;;;;;;;2.60;0.73;;;;;;;17.21;75.18;102345.28;5057819;28;20044;-78
2022/07/16 05:33:54;;;;;;;2.58;1.08;;;;;;;17.21;75.22;102350.59;5039339;28;20033;-78
2022/07/16 05:36:19;;;;;;;1.42;0.73;;;;;;;17.20;74.76;102354.16;5057225;28;20040;-78
2022/07/16 05:38:45;;;;;;;2.83;0.90;;;;;;;17.21;74.61;102355.03;5057134;28;20041;-77
2022/07/16 05:41:10;;;;;;;2.00;1.00;;;;;;;17.19;73.94;102355.09;5035348;28;20045;-78
2022/07/16 05:43:36;;;;;;;1.27;0.80;;;;;;;17.19;74.25;102359.50;5061703;28;20045;-78
2022/07/16 05:46:01;;;;;;;4.13;1.10;;;;;;;17.20;74.02;102358.59;5067736;28;20039;-77
2022/07/16 05:48:26;;;;;;;1.38;0.90;;;;;;;17.19;73.77;102360.38;5026127;28;20060;-78
2022/07/16 05:50:52;;;;;;;1.17;0.90;;;;;;;17.20;73.71;102359.44;5058022;28;20036;-78
2022/07/16 05:53:17;;;;;;;1.00;0.77;;;;;;;17.20;73.28;102369.19;5059135;28;20024;-78
2022/07/16 05:55:43;;;;;;;1.48;1.00;;;;;;;17.18;72.96;102369.25;5034631;28;20037;-78
2022/07/16 05:58:08;;;;;;;2.63;1.00;;;;;;;17.17;72.80;102371.94;5038742;28;20060;-77
2022/07/16 06:00:34;;;;;;;2.53;1.00;;;;;;;17.16;72.68;102372.91;5048667;28;20033;-78
2022/07/16 06:02:59;;;;;;;1.40;0.90;;;;;;;17.17;72.32;102387.84;5049805;28;20044;-78
2022/07/16 06:05:25;;;;;;;3.30;1.25;;;;;;;17.16;72.23;102375.56;5036951;28;20348;-77
2022/07/16 06:07:50;;;;;;;1.20;0.93;;;;;;;17.13;71.74;102384.47;5051624;28;20108;-78
2022/07/16 06:10:15;;;;;;;3.63;1.00;;;;;;;17.13;72.05;102389.75;5036409;28;20045;-78
2022/07/16 06:12:41;;;;;;;2.80;1.13;;;;;;;17.13;71.83;102383.63;5037571;28;20388;-78
2022/07/16 06:15:07;;;;;;;2.15;1.15;;;;;;;17.11;71.51;102391.63;5035533;28;20047;-78
2022/07/16 06:17:33;;;;;;;2.05;1.00;;;;;;;17.08;71.28;102389.97;5037015;28;20057;-78
2022/07/16 06:19:58;;;;;;;2.60;0.73;;;;;;;17.10;71.47;102389.91;5035286;28;20087;-77
2022/07/16 06:22:24;;;;;;;0.98;0.70;;;;;;;17.09;71.01;102385.53;5037116;28;20052;-77
2022/07/16 06:24:49;;;;;;;4.45;1.20;;;;;;;17.10;70.67;102392.56;5062154;28;20040;-78
2022/07/16 06:27:15;;;;;;;2.15;0.90;;;;;;;17.11;70.40;102396.06;5050842;28;20335;-77
2022/07/16 06:29:40;;;;;;;1.92;0.85;;;;;;;17.11;70.53;102399.56;5045289;28;20037;-77
2022/07/16 06:32:06;;;;;;;1.42;0.90;;;;;;;17.12;70.57;102395.13;5026268;28;20101;-77
2022/07/16 06:34:31;;;;;;;2.92;0.98;;;;;;;17.14;70.36;102403.88;5044935;28;20024;-77
2022/07/16 06:36:56;;;;;;;3.78;1.30;;;;;;;17.13;70.39;102410.94;5042361;28;20095;-77
2022/07/16 06:39:22;;;;;;;3.03;1.10;;;;;;;17.15;70.70;102424.09;5047682;28;20032;-77
2022/07/16 06:41:47;;;;;;;5.43;1.17;;;;;;;17.16;69.85;102412.59;5044670;28;20044;-78
2022/07/16 06:44:12;;;;;;;4.07;1.15;;;;;;;17.16;69.92;102412.59;5046566;28;20240;-77
2022/07/16 06:46:38;;;;;;;3.10;0.80;;;;;;;17.15;69.61;102421.47;5056564;28;20362;-78
2022/07/16 06:49:04;;;;;;;2.78;0.82;;;;;;;17.15;69.60;102419.66;5036857;28;20249;-78
2022/07/16 06:51:29;;;;;;;2.38;0.90;;;;;;;17.16;69.37;102423.19;5033322;28;20042;-78
2022/07/16 06:53:55;;;;;;;2.35;0.82;;;;;;;17.15;69.04;102432.06;5034145;28;20048;-78
2022/07/16 06:56:20;;;;;;;2.13;0.90;;;;;;;17.16;68.91;102432.00;5051505;28;20391;-78
2022/07/16 06:58:45;;;;;;;4.18;1.02;;;;;;;17.13;68.22;102432.09;5051037;28;20139;-78
2022/07/16 07:01:11;;;;;;;2.80;1.00;;;;;;;17.14;67.68;102433.00;5032334;28;20037;-77
2022/07/16 07:03:40;;;;;;;2.15;0.60;;;;;;;17.13;67.46;102441.84;5048082;28;20136;-78
2022/07/16 07:06:06;;;;;;;6.55;1.00;;;;;;;17.13;67.48;102436.56;5046813;28;20037;-78
2022/07/16 07:08:32;;;;;;;2.55;0.93;;;;;;;17.13;67.53;102437.41;5052275;28;20100;-78
2022/07/16 07:10:59;;;;;;;2.63;0.77;;;;;;;17.13;67.12;102444.50;5054935;28;20140;-77
2022/07/16 07:13:26;;;;;;;2.95;0.63;;;;;;;17.12;66.78;102446.28;5060614;28;20123;-78
2022/07/16 07:15:51;;;;;;;3.80;0.90;;;;;;;17.11;66.19;102444.56;5053514;28;20033;-78
2022/07/16 07:18:16;;;;;;;2.83;0.60;;;;;;;17.11;66.00;102452.50;5049260;28;20291;-78
2022/07/16 07:20:41;;;;;;;4.72;0.82;;;;;;;17.10;65.79;102453.44;5051535;28;20048;-78
2022/07/16 07:23:07;;;;;;;1.80;0.60;;;;;;;17.12;66.29;102453.34;5038609;28;20036;-78
2022/07/16 07:25:33;;;;;;;1.83;0.52;;;;;;;17.12;66.28;102456.88;5035592;28;20037;-78
2022/07/16 07:27:58;;;;;;;2.13;0.70;;;;;;;17.09;65.40;102462.28;5037670;28;20375;-78
2022/07/16 07:30:23;;;;;;;3.75;0.95;;;;;;;17.09;65.00;102457.00;5054894;28;20308;-78
2022/07/16 07:32:49;;;;;;;1.27;0.55;;;;;;;17.09;64.82;102459.66;5054507;28;20348;-78
2022/07/16 07:35:14;;;;;;;1.63;0.70;;;;;;;17.10;65.55;102457.84;5034216;28;20051;-78
2022/07/16 07:37:39;;;;;;;5.22;0.70;;;;;;;17.13;64.71;102466.53;5043688;28;20392;-78
2022/07/16 07:40:06;;;;;;;2.88;0.70;;;;;;;17.12;63.93;102464.81;5019589;28;20330;-78
2022/07/16 07:42:31;;;;;;;5.00;0.90;;;;;;;17.12;63.49;102466.59;5053582;28;20036;-78
2022/07/16 07:44:57;;;;;;;1.40;1.00;;;;;;;17.11;63.58;102467.53;5049586;28;20399;-78
2022/07/16 07:47:22;;;;;;;3.58;0.80;;;;;;;17.11;63.84;102462.22;5033788;28;20433;-78
2022/07/16 07:49:48;;;;;;;5.45;1.02;;;;;;;17.11;64.27;102473.69;5034269;28;20060;-78
2022/07/16 07:52:13;;;;;;;5.43;1.00;;;;;;;17.11;63.69;102473.69;5041981;28;20029;-78
2022/07/16 07:54:39;;;;;;;1.92;0.82;;;;;;;17.13;63.71;102477.13;5051229;28;20041;-78
2022/07/16 07:57:05;;;;;;;3.40;0.90;;;;;;;17.13;63.68;102477.13;5030978;28;20051;-78
2022/07/16 07:59:30;;;;;;;2.65;0.60;;;;;;;17.15;63.09;102490.28;5020239;28;20141;-78
2022/07/16 08:01:55;;;;;;;2.30;0.80;;;;;;;17.16;62.47;102481.44;5054437;28;20355;-78
2022/07/16 08:04:21;;;;;;;3.15;0.50;;;;;;;17.18;62.90;102483.06;5026834;28;20060;-78
2022/07/16 08:06:46;;;;;;;5.70;1.05;;;;;;;17.20;62.90;102488.31;5016907;28;20033;-78
2022/07/16 08:09:12;;;;;;;1.77;0.75;;;;;;;17.20;62.40;102489.16;5048083;28;20071;-78
2022/07/16 08:11:37;;;;;;;11.68;0.70;;;;;;;17.23;62.89;102498.78;5019790;28;20021;-78
2022/07/16 08:14:02;;;;;;;2.53;0.80;;;;;;;17.26;63.06;102503.94;5061593;28;20286;-78
2022/07/16 08:16:28;;;;;;;5.47;1.00;;;;;;;17.26;62.67;102498.63;5048788;28;20045;-78
2022/07/16 08:18:53;;;;;;;1.95;0.75;;;;;;;17.26;63.10;102495.97;5053789;28;20071;-78
2022/07/16 08:21:19;;;;;;;3.25;0.60;;;;;;;17.30;62.90;102502.88;5025201;28;20234;-78
2022/07/16 08:26:28;;;;;;;1.63;0.60;;;;;;;17.35;63.24;102505.31;5021333;28;20730;-78
2022/07/16 08:28:53;;;;;;;2.22;0.63;;;;;;;17.38;63.22;102511.34;5045903;28;20053;-78
2022/07/16 08:31:19;;;;;;;3.80;1.13;;;;;;;17.39;62.28;102510.44;5048367;28;20115;-78
2022/07/16 08:33:44;;;;;;;2.40;0.70;;;;;;;17.43;61.86;102516.47;5030628;28;20033;-78
2022/07/16 08:36:10;;;;;;;2.92;0.70;;;;;;;17.43;61.47;102516.47;5036455;28;20025;-78
2022/07/16 08:38:35;;;;;;;3.88;0.82;;;;;;;17.44;61.24;102511.09;5031286;28;20255;-78
2022/07/16 08:41:02;;;;;;;3.90;0.88;;;;;;;17.46;60.89;102516.31;5024251;28;20255;-78
2022/07/16 08:43:29;;;;;;;2.45;0.70;;;;;;;17.46;60.80;102518.97;5033082;28;20370;-78
2022/07/16 08:45:56;;;;;;;3.88;0.70;;;;;;;17.50;60.77;102523.22;5027794;28;20063;-79
2022/07/16 08:48:23;;;;;;;3.30;0.90;;;;;;;17.55;61.57;102529.16;5055602;28;20032;-78
2022/07/16 08:50:49;;;;;;;1.13;0.70;;;;;;;17.59;61.77;102532.53;5051924;28;20040;-78
2022/07/16 08:53:17;;;;;;;0.90;0.63;;;;;;;17.61;61.16;102541.31;5049945;28;20432;-78
2022/07/16 08:55:43;;;;;;;2.40;0.67;;;;;;;17.62;60.67;102543.84;5051050;28;20033;-79
2022/07/16 08:58:08;;;;;;;2.50;0.63;;;;;;;17.62;60.35;102549.16;5037985;28;20056;-78
2022/07/16 09:00:34;;;;;;;1.25;0.60;;;;;;;17.63;60.06;102550.03;5066812;28;20091;-78
2022/07/16 09:03:00;;;;;;;1.50;0.98;;;;;;;17.65;60.02;102540.22;5051501;28;20042;-78
2022/07/16 09:05:26;;;;;;;4.05;0.75;;;;;;;17.67;59.22;102554.28;5032433;28;20103;-78
2022/07/16 09:07:53;;;;;;;1.67;0.50;;;;;;;17.69;60.18;102548.91;5042219;28;20381;-78
2022/07/16 09:10:19;;;;;;;2.42;1.13;;;;;;;17.70;60.01;102555.91;5040127;28;20347;-78
2022/07/16 09:12:48;;;;;;;3.95;0.80;;;;;;;17.73;60.30;102554.00;5047436;28;20077;-78
2022/07/16 09:15:35;;;;;;;1.70;0.65;;;;;;;17.76;59.98;102553.00;5045248;28;20064;-78
2022/07/16 09:18:20;;;;;;;1.55;0.60;;;;;;;17.78;59.07;102564.41;5042721;28;20063;-78
2022/07/16 09:20:46;;;;;;;1.55;0.60;;;;;;;17.80;58.95;102559.91;5021706;28;20033;-78
2022/07/16 09:23:20;;;;;;;1.50;0.68;;;;;;;17.82;59.00;102556.22;5065458;28;20065;-78
2022/07/16 09:25:51;;;;;;;4.25;1.10;;;;;;;17.84;60.24;102569.41;5032437;28;20252;-79
2022/07/16 09:28:17;;;;;;;2.88;0.70;;;;;;;17.86;60.70;102564.09;5035481;28;20078;-78
2022/07/16 09:30:43;;;;;;;2.40;0.80;;;;;;;17.87;60.96;102569.34;5052590;28;20056;-78
2022/07/16 09:33:17;;;;;;;4.20;0.60;;;;;;;17.90;60.88;102573.63;5050169;28;20049;-78
2022/07/16 09:35:43;;;;;;;3.08;0.65;;;;;;;17.91;61.21;102576.22;5046945;28;20153;-78
2022/07/16 09:38:09;;;;;;;3.80;1.02;;;;;;;17.93;60.39;102582.31;5022140;28;20368;-78
2022/07/16 09:40:54;;;;;;;2.83;0.75;;;;;;;17.94;60.77;102583.19;5057394;28;20029;-78
2022/07/16 09:43:22;;;;;;;1.45;0.50;;;;;;;17.96;60.31;102582.19;5046630;28;20065;-77
2022/07/16 09:45:57;;;;;;;2.88;0.60;;;;;;;17.99;60.28;102589.13;5030476;28;20029;-78
2022/07/16 09:48:28;;;;;;;2.83;0.93;;;;;;;18.01;60.61;102588.13;5049275;28;20033;-78
2022/07/16 09:50:57;;;;;;;2.78;0.80;;;;;;;18.00;61.08;102589.06;5044301;28;20104;-77
2022/07/16 09:53:24;;;;;;;;;;;;;;;18.01;61.49;102590.78;5038137;28;20041;-78
2022/07/16 09:55:55;;;;;;;9.98;1.15;;;;;;;18.02;61.54;102597.78;5044939;28;19948;-78
2022/07/16 09:58:20;;;;;;;0.88;0.57;;;;;;;18.05;60.71;102598.63;5056707;28;20325;-79
2022/07/16 10:00:46;;;;;;;1.00;0.65;;;;;;;18.10;60.86;102588.63;5041150;28;20045;-78
2022/07/16 10:03:11;;;;;;;1.95;0.75;;;;;;;18.11;60.69;102606.28;5047237;28;20174;-78
2022/07/16 10:05:37;;;;;;;4.50;1.00;;;;;;;18.14;59.76;102599.06;5054525;28;20352;-78
2022/07/16 10:08:03;;;;;;;2.70;1.30;;;;;;;18.16;59.04;102604.28;5055497;28;20033;-78
2022/07/16 10:10:28;;;;;;;1.88;0.70;;;;;;;18.17;60.04;102604.22;5056903;28;20040;-79
2022/07/16 10:12:54;;;;;;;2.53;0.90;;;;;;;18.19;60.03;102607.66;5030326;28;20330;-78
2022/07/16 10:15:20;;;;;;;3.78;1.02;;;;;;;18.22;59.25;102602.22;5022989;28;20037;-78
2022/07/16 10:17:46;;;;;;;2.30;0.80;;;;;;;18.24;58.74;102599.50;5056912;28;20072;-77
2022/07/16 10:20:17;;;;;;;2.10;0.73;;;;;;;18.26;58.74;102596.78;5048943;28;20041;-77
2022/07/16 10:22:45;;;;;;;2.00;0.70;;;;;;;18.27;59.13;102602.00;5040915;28;20041;-78
2022/07/16 10:25:22;;;;;;;1.45;0.50;;;;;;;18.30;59.58;102609.84;5035938;28;20316;-78
2022/07/16 10:27:48;;;;;;;1.95;0.60;;;;;;;18.30;58.64;102601.88;5052203;28;20021;-78
2022/07/16 10:30:16;;;;;;;2.15;0.90;;;;;;;18.34;59.16;102618.53;5042503;28;20051;-78
2022/07/16 10:33:00;;;;;;;2.40;0.80;;;;;;;18.34;60.56;102616.72;5037288;28;20033;-78
2022/07/16 10:35:45;;;;;;;1.52;0.77;;;;;;;18.37;60.46;102624.56;5050994;28;20020;-78
2022/07/16 10:38:18;;;;;;;3.97;0.90;;;;;;;18.40;59.68;102613.78;5045844;28;20087;-78
2022/07/16 10:40:45;;;;;;;2.63;0.77;;;;;;;18.41;58.50;102612.00;5036942;28;20396;-78
2022/07/16 10:43:16;;;;;;;3.72;0.90;;;;;;;18.42;59.87;102619.88;5045178;28;20279;-78
2022/07/16 10:46:00;;;;;;;3.15;0.80;;;;;;;18.44;58.74;102626.91;5041889;28;20100;-78
2022/07/16 10:48:29;;;;;;;2.80;0.73;;;;;;;18.44;58.38;102632.22;5037148;28;20344;-78
2022/07/16 10:51:20;;;;;;;7.90;0.98;;;;;;;18.45;57.88;102640.09;5049573;28;20314;-78
2022/07/16 10:53:57;;;;;;;3.00;0.75;;;;;;;18.47;57.35;102629.44;5040156;28;20037;-79
2022/07/16 10:56:42;;;;;;;5.88;0.80;;;;;;;18.48;58.55;102629.38;5021520;28;20240;-78
2022/07/16 10:59:10;;;;;;;5.95;0.80;;;;;;;18.50;57.89;102631.91;5038080;28;20049;-78
2022/07/16 11:01:37;;;;;;;1.90;0.60;;;;;;;18.51;58.34;102633.66;5057806;28;20043;-78
2022/07/16 11:04:03;;;;;;;2.10;0.60;;;;;;;18.54;57.33;102636.19;5021895;28;20327;-78
2022/07/16 11:06:29;;;;;;;5.53;1.00;;;;;;;18.55;57.42;102640.53;5051536;28;20348;-78
2022/07/16 11:08:56;;;;;;;2.80;0.77;;;;;;;18.58;57.37;102641.25;5038586;28;20365;-78
2022/07/16 11:11:22;;;;;;;2.47;0.80;;;;;;;18.62;58.71;102647.28;5053309;28;20060;-78
2022/07/16 11:13:52;;;;;;;5.80;0.98;;;;;;;18.66;58.15;102650.66;5032357;28;20048;-78
2022/07/16 11:16:17;;;;;;;2.95;1.00;;;;;;;18.66;58.62;102645.34;5051050;28;20046;-78
2022/07/16 11:18:42;;;;;;;3.33;0.85;;;;;;;18.67;57.68;102658.56;5039435;28;20068;-78
2022/07/16 11:21:09;;;;;;;1.73;0.60;;;;;;;18.65;56.92;102648.97;5061591;28;20059;-79
2022/07/16 11:23:56;;;;;;;1.98;0.63;;;;;;;18.67;56.78;102652.41;5055476;28;20236;-78
2022/07/16 11:26:22;;;;;;;2.45;0.85;;;;;;;18.67;56.95;102653.25;5055073;28;20064;-79
2022/07/16 11:28:58;;;;;;;4.78;0.80;;;;;;;18.67;57.19;102650.59;5043267;28;20068;-78
2022/07/16 11:31:32;;;;;;;3.67;1.00;;;;;;;18.68;55.91;102651.44;5047906;28;20041;-78